Wapping, Connecticut
Current Conditions -  °F | °C
As of 4:53 AM on Sunday 21 Dec 2014 (Local Time) from KHFD Reporting Station
Haze Haze  
Wind Chill: 25°   Ceiling: 700
Heat Index: 31°   Visibility: 3mi
Dew Point: 29°   Wind: 6mph
Humidity: 92%   Direction: NA
Pressure: 30.28"   Gusts: NA
Location:  41.8353°N, 72.5722°W
Report Text: KHFD 210953Z AUTO VRB05KT 3SM BR BKN007 OVC020 M01/M02 A3028 RMK AO2 SNE50 CIG 005V009 SLP253 P0001 T10061017
Loading
Personal Weather Stations






























Interactive Weather Map New forecast layout! Learn more

10-Day Weather Forecast

Advertisements
Track Severe Weather on mobile